Time;durP1;ratioP1;P1;durP2;ratioP2;P2;SDS_P1;SDS_P2;PMS_P1;PMS_P2;Temp;Humidity;BMP_temperature;BMP_pressure;BME280_temperature;BME280_humidity;BME280_pressure;Samples;Min_cycle;Max_cycle;Signal;HPM_P1;HPM_P2
2023/03/01 00:00:16;;;;;;;16.88;7.47;;;;;;;;;;6297354;22;20467;-83
2023/03/01 00:03:26;;;;;;;13.05;6.72;;;;;;;;;;6256767;22;20022;-84
2023/03/01 00:06:48;;;;;;;21.63;8.30;;;;;;;;;;6317932;22;20027;-85
2023/03/01 00:09:56;;;;;;;20.10;7.55;;;;;;;;;;6333145;22;20509;-84
2023/03/01 00:13:27;;;;;;;18.08;8.57;;;;;;;;;;6314687;22;20026;-84
2023/03/01 00:17:04;;;;;;;15.73;7.53;;;;;;;;;;6295713;22;20714;-84
2023/03/01 00:20:53;;;;;;;13.85;6.90;;;;;;;;;;6352887;22;20023;-84
2023/03/01 00:24:11;;;;;;;15.55;7.93;;;;;;;;;;6365304;22;20402;-84
2023/03/01 00:27:31;;;;;;;12.68;6.60;;;;;;;;;;6340827;22;20345;-84
2023/03/01 00:30:46;;;;;;;15.60;7.32;;;;;;;;;;6336645;22;20064;-84
2023/03/01 00:33:33;;;;;;;17.15;7.82;;;;;;;;;;6339159;22;20022;-84
2023/03/01 00:36:24;;;;;;;15.80;7.10;;;;;;;;;;6320053;22;20026;-84
2023/03/01 00:39:55;;;;;;;15.77;7.47;;;;;;;;;;6328551;22;20077;-84
2023/03/01 00:43:03;;;;;;;13.30;6.22;;;;;;;;;;6340493;22;20033;-84
2023/03/01 00:45:53;;;;;;;15.63;7.65;;;;;;;;;;6320142;22;20022;-84
2023/03/01 00:48:46;;;;;;;13.65;6.80;;;;;;;;;;6320693;22;20015;-84
2023/03/01 00:51:29;;;;;;;16.80;7.18;;;;;;;;;;6324522;22;20030;-84
2023/03/01 00:54:12;;;;;;;19.58;7.38;;;;;;;;;;6316585;22;20349;-84
2023/03/01 00:57:20;;;;;;;14.25;7.00;;;;;;;;;;6355791;22;20013;-83
2023/03/01 01:00:06;;;;;;;15.00;7.05;;;;;;;;;;6292060;22;20030;-84
2023/03/01 01:02:54;;;;;;;15.40;6.47;;;;;;;;;;6310362;22;20030;-84
2023/03/01 01:05:58;;;;;;;12.82;6.57;;;;;;;;;;6244193;22;20033;-84
2023/03/01 01:09:20;;;;;;;11.95;5.72;;;;;;;;;;6322012;22;20015;-84
2023/03/01 01:12:33;;;;;;;17.00;7.07;;;;;;;;;;6275378;22;20023;-84
2023/03/01 01:15:22;;;;;;;16.70;5.72;;;;;;;;;;6312410;22;20030;-84
2023/03/01 01:18:41;;;;;;;14.75;6.00;;;;;;;;;;6324712;22;20098;-84
2023/03/01 01:21:43;;;;;;;14.77;7.13;;;;;;;;;;6334725;22;20126;-84
2023/03/01 01:24:32;;;;;;;13.88;6.97;;;;;;;;;;6374382;22;20014;-84
2023/03/01 01:27:20;;;;;;;18.13;6.53;;;;;;;;;;6340636;22;20139;-84
2023/03/01 01:30:17;;;;;;;15.65;6.32;;;;;;;;;;6324819;22;20454;-84
2023/03/01 01:33:08;;;;;;;14.82;6.93;;;;;;;;;;6303607;22;20105;-84
2023/03/01 01:36:10;;;;;;;12.32;6.05;;;;;;;;;;6350151;22;20026;-84
2023/03/01 01:38:54;;;;;;;12.20;6.13;;;;;;;;;;6292568;22;20446;-84
2023/03/01 01:42:13;;;;;;;10.07;5.55;;;;;;;;;;6299607;22;20064;-84
2023/03/01 01:45:26;;;;;;;12.17;5.47;;;;;;;;;;6346772;22;20060;-84
2023/03/01 01:48:16;;;;;;;12.13;5.95;;;;;;;;;;6345676;22;20022;-83
2023/03/01 01:51:00;;;;;;;11.60;5.68;;;;;;;;;;6338638;22;20022;-84
2023/03/01 01:53:55;;;;;;;14.43;5.93;;;;;;;;;;6309626;22;20072;-84
2023/03/01 01:57:03;;;;;;;13.30;5.22;;;;;;;;;;6327658;22;20076;-83
2023/03/01 01:59:54;;;;;;;12.73;5.80;;;;;;;;;;6325871;22;20637;-84
2023/03/01 02:02:51;;;;;;;13.52;6.35;;;;;;;;;;6337395;22;20033;-83
2023/03/01 02:05:58;;;;;;;10.23;4.88;;;;;;;;;;6339287;22;20030;-83
2023/03/01 02:09:07;;;;;;;10.55;4.82;;;;;;;;;;6335244;22;20022;-84
2023/03/01 02:11:50;;;;;;;12.95;6.30;;;;;;;;;;6338927;22;20164;-84
2023/03/01 02:14:37;;;;;;;13.63;5.82;;;;;;;;;;6324956;22;20022;-84
2023/03/01 02:17:49;;;;;;;13.48;5.13;;;;;;;;;;6316173;22;20014;-84
2023/03/01 02:20:36;;;;;;;11.35;5.55;;;;;;;;;;6309385;22;20034;-84
2023/03/01 02:23:29;;;;;;;10.38;5.60;;;;;;;;;;6347022;22;20010;-84
2023/03/01 02:26:16;;;;;;;11.15;5.18;;;;;;;;;;6294473;22;20022;-84
2023/03/01 02:29:43;;;;;;;16.55;4.97;;;;;;;;;;6336004;22;20026;-84
2023/03/01 02:32:26;;;;;;;11.13;5.25;;;;;;;;;;6350034;22;20052;-84
2023/03/01 02:35:15;;;;;;;10.95;5.53;;;;;;;;;;6323142;22;20049;-84
2023/03/01 02:38:00;;;;;;;11.57;4.78;;;;;;;;;;6312669;22;20382;-84
2023/03/01 02:40:46;;;;;;;12.32;5.00;;;;;;;;;;6317808;22;20029;-84
2023/03/01 02:44:00;;;;;;;12.73;4.97;;;;;;;;;;6331468;22;20177;-84
2023/03/01 02:46:47;;;;;;;10.15;4.70;;;;;;;;;;6349048;22;20018;-84
2023/03/01 02:49:59;;;;;;;14.48;5.63;;;;;;;;;;6331787;22;20450;-84
2023/03/01 02:52:49;;;;;;;11.98;5.45;;;;;;;;;;6335249;22;20048;-84
2023/03/01 02:55:43;;;;;;;15.65;6.63;;;;;;;;;;6332935;22;20463;-84
2023/03/01 02:58:51;;;;;;;12.00;5.97;;;;;;;;;;6348677;22;20454;-84
2023/03/01 03:01:46;;;;;;;11.50;5.32;;;;;;;;;;6316046;22;20042;-84
2023/03/01 03:05:36;;;;;;;13.75;6.20;;;;;;;;;;6340049;22;20025;-84
2023/03/01 03:08:23;;;;;;;10.07;4.90;;;;;;;;;;6335274;22;20025;-83
2023/03/01 03:11:43;;;;;;;12.07;4.50;;;;;;;;;;6347112;22;20057;-84
2023/03/01 03:14:34;;;;;;;9.57;4.70;;;;;;;;;;6329645;22;20331;-84
2023/03/01 03:17:29;;;;;;;12.00;5.40;;;;;;;;;;6343594;22;20042;-83
2023/03/01 03:20:18;;;;;;;;;;;;;;;;;;6362740;22;20096;-83
2023/03/01 03:23:01;;;;;;;12.93;5.53;;;;;;;;;;6338251;22;19914;-83
2023/03/01 03:25:42;;;;;;;9.57;4.95;;;;;;;;;;6348704;22;20022;-84
2023/03/01 03:28:48;;;;;;;10.73;5.47;;;;;;;;;;6318593;22;20408;-83
2023/03/01 03:31:35;;;;;;;11.48;4.63;;;;;;;;;;6346295;22;20416;-84
2023/03/01 03:34:20;;;;;;;13.38;6.20;;;;;;;;;;6291083;22;20027;-84
2023/03/01 03:40:42;;;;;;;11.52;5.20;;;;;;;;;;6345107;22;20019;-84
2023/03/01 03:43:26;;;;;;;9.80;4.95;;;;;;;;;;6353097;22;20060;-84
2023/03/01 03:46:10;;;;;;;10.48;5.10;;;;;;;;;;6318775;22;20079;-84
2023/03/01 03:48:52;;;;;;;10.23;4.90;;;;;;;;;;6347387;22;20022;-84
2023/03/01 03:51:40;;;;;;;9.80;4.70;;;;;;;;;;6364891;22;20041;-84
2023/03/01 03:54:24;;;;;;;14.15;6.53;;;;;;;;;;6319335;22;20029;-84
2023/03/01 03:57:22;;;;;;;13.98;6.15;;;;;;;;;;6375462;22;20513;-84
2023/03/01 04:00:30;;;;;;;14.48;6.60;;;;;;;;;;6315973;22;20513;-84
2023/03/01 04:03:47;;;;;;;17.10;6.70;;;;;;;;;;6364596;22;20014;-84
2023/03/01 04:07:24;;;;;;;13.63;5.88;;;;;;;;;;6327774;22;20065;-84
2023/03/01 04:10:28;;;;;;;;;;;;;;;;;;6268567;22;20030;-84
2023/03/01 04:13:38;;;;;;;29.58;6.13;;;;;;;;;;6176226;22;19946;-83
2023/03/01 04:16:19;;;;;;;10.90;5.35;;;;;;;;;;6260255;22;20189;-84
2023/03/01 04:19:48;;;;;;;11.05;5.55;;;;;;;;;;6264897;22;20019;-84
2023/03/01 04:23:19;;;;;;;9.20;5.38;;;;;;;;;;6298954;22;20038;-85
2023/03/01 04:26:12;;;;;;;15.57;6.00;;;;;;;;;;6232604;22;20018;-84
2023/03/01 04:29:38;;;;;;;10.60;5.90;;;;;;;;;;6225853;22;20085;-84
2023/03/01 04:33:08;;;;;;;12.93;5.97;;;;;;;;;;6266112;22;20459;-84
2023/03/01 04:36:17;;;;;;;16.33;6.47;;;;;;;;;;6297233;22;20034;-84
2023/03/01 04:39:11;;;;;;;11.90;5.55;;;;;;;;;;6264144;22;20596;-84
2023/03/01 04:42:59;;;;;;;10.73;5.60;;;;;;;;;;6352426;22;20030;-84
2023/03/01 04:46:34;;;;;;;12.05;6.28;;;;;;;;;;6346726;22;20026;-84
2023/03/01 04:49:20;;;;;;;9.20;5.20;;;;;;;;;;6316420;22;20033;-84
2023/03/01 04:52:36;;;;;;;15.02;6.60;;;;;;;;;;6345713;22;20026;-84
2023/03/01 04:56:20;;;;;;;11.02;5.38;;;;;;;;;;6328639;22;20068;-84
2023/03/01 05:00:45;;;;;;;17.05;6.40;;;;;;;;;;6363995;22;20376;-84
2023/03/01 05:04:18;;;;;;;16.10;6.63;;;;;;;;;;6362660;22;20493;-84
2023/03/01 05:08:07;;;;;;;15.23;6.30;;;;;;;;;;6340723;22;20018;-84
2023/03/01 05:12:13;;;;;;;12.48;5.88;;;;;;;;;;6329192;22;20029;-84
2023/03/01 05:16:01;;;;;;;14.38;6.43;;;;;;;;;;6288457;22;20023;-84
2023/03/01 05:20:24;;;;;;;14.60;5.80;;;;;;;;;;6316418;22;20023;-84
2023/03/01 05:24:40;;;;;;;14.80;6.50;;;;;;;;;;6266854;22;20072;-84
2023/03/01 05:29:02;;;;;;;13.38;6.85;;;;;;;;;;6324530;22;20054;-84
2023/03/01 05:33:13;;;;;;;13.10;6.00;;;;;;;;;;6328804;22;20144;-84
2023/03/01 05:37:16;;;;;;;12.23;6.00;;;;;;;;;;6315652;22;20027;-84
2023/03/01 05:41:41;;;;;;;13.23;6.38;;;;;;;;;;6338378;22;20577;-84
2023/03/01 05:45:42;;;;;;;11.75;6.13;;;;;;;;;;6363863;22;20027;-84
2023/03/01 05:49:31;;;;;;;15.25;6.53;;;;;;;;;;6362761;22;20019;-85
2023/03/01 05:53:17;;;;;;;13.43;5.63;;;;;;;;;;6340530;22;20022;-84
2023/03/01 06:01:57;;;;;;;16.63;6.10;;;;;;;;;;6363882;22;20023;-84
2023/03/01 06:06:01;;;;;;;13.38;6.25;;;;;;;;;;6297573;22;20031;-85
2023/03/01 06:10:10;;;;;;;13.02;5.90;;;;;;;;;;6262655;22;20026;-84
2023/03/01 06:14:07;;;;;;;13.57;6.00;;;;;;;;;;6266246;22;20027;-84
2023/03/01 06:18:49;;;;;;;12.93;5.68;;;;;;;;;;6204090;23;20020;-83
2023/03/01 06:22:11;;;;;;;14.75;6.93;;;;;;;;;;6175633;23;20040;-86
2023/03/01 06:25:55;;;;;;;11.50;5.93;;;;;;;;;;6162129;23;20556;-85
2023/03/01 06:29:08;;;;;;;9.38;5.25;;;;;;;;;;6129033;23;20025;-84
2023/03/01 06:32:31;;;;;;;10.38;5.93;;;;;;;;;;6134082;23;20025;-85
2023/03/01 06:35:38;;;;;;;14.70;6.18;;;;;;;;;;6180842;23;20043;-85
2023/03/01 06:39:00;;;;;;;17.95;6.30;;;;;;;;;;6210259;23;20135;-85
2023/03/01 06:43:08;;;;;;;17.00;6.50;;;;;;;;;;6205602;23;20090;-85
2023/03/01 06:52:37;;;;;;;16.58;6.65;;;;;;;;;;6126529;23;20029;-85
2023/03/01 06:56:02;;;;;;;14.40;6.85;;;;;;;;;;6067519;23;20104;-85
2023/03/01 07:00:13;;;;;;;14.38;6.57;;;;;;;;;;6116159;23;20362;-85
2023/03/01 07:04:48;;;;;;;16.45;6.10;;;;;;;;;;6113750;23;20030;-84
2023/03/01 07:08:18;;;;;;;16.77;5.93;;;;;;;;;;6206812;23;20020;-86
2023/03/01 07:12:01;;;;;;;14.73;6.50;;;;;;;;;;6190256;23;20032;-84
2023/03/01 07:16:29;;;;;;;16.40;6.85;;;;;;;;;;6207588;23;20124;-86
2023/03/01 07:20:12;;;;;;;17.80;6.95;;;;;;;;;;6187995;22;20028;-85
2023/03/01 07:23:56;;;;;;;13.27;6.22;;;;;;;;;;6346306;22;20026;-85
2023/03/01 07:28:19;;;;;;;13.35;6.22;;;;;;;;;;6269143;22;20019;-85
2023/03/01 07:32:50;;;;;;;15.60;6.50;;;;;;;;;;6207166;23;20028;-85
2023/03/01 07:37:18;;;;;;;15.15;6.40;;;;;;;;;;6178445;23;20025;-84
2023/03/01 07:46:19;;;;;;;15.35;6.90;;;;;;;;;;6058012;23;20031;-86
2023/03/01 07:50:03;;;;;;;11.45;5.65;;;;;;;;;;6059051;23;20042;-86
2023/03/01 08:03:06;;;;;;;14.63;6.65;;;;;;;;;;6127141;23;20129;-85
2023/03/01 08:07:43;;;;;;;13.75;6.40;;;;;;;;;;6116292;23;20034;-85
2023/03/01 08:16:52;;;;;;;18.02;7.68;;;;;;;;;;6119748;23;20052;-86
2023/03/01 08:20:59;;;;;;;11.27;6.55;;;;;;;;;;6092813;23;20431;-85
2023/03/01 08:25:25;;;;;;;14.43;7.00;;;;;;;;;;6178386;23;20025;-85
2023/03/01 08:29:47;;;;;;;17.35;7.13;;;;;;;;;;6119649;23;20044;-85
2023/03/01 08:33:51;;;;;;;12.65;6.65;;;;;;;;;;6119008;23;20030;-86
2023/03/01 08:37:59;;;;;;;19.25;8.02;;;;;;;;;;6004004;23;20674;-85
2023/03/01 08:42:20;;;;;;;18.63;7.80;;;;;;;;;;6036329;23;20399;-85
2023/03/01 08:46:32;;;;;;;14.20;7.38;;;;;;;;;;6059066;23;20406;-86
2023/03/01 08:50:40;;;;;;;16.35;8.23;;;;;;;;;;6040212;23;20034;-85
2023/03/01 08:55:24;;;;;;;14.73;7.47;;;;;;;;;;6088022;23;20030;-85
2023/03/01 09:00:01;;;;;;;20.08;7.72;;;;;;;;;;6041404;23;20085;-86
2023/03/01 09:04:09;;;;;;;15.02;7.45;;;;;;;;;;6002379;23;20592;-85
2023/03/01 09:08:32;;;;;;;18.30;8.00;;;;;;;;;;6036607;23;20030;-85
2023/03/01 09:12:53;;;;;;;20.13;8.82;;;;;;;;;;6077286;23;20034;-87
2023/03/01 09:17:17;;;;;;;18.00;8.23;;;;;;;;;;6059190;23;20035;-87
2023/03/01 09:21:55;;;;;;;18.10;8.93;;;;;;;;;;6060609;23;20030;-86
2023/03/01 09:26:34;;;;;;;22.13;8.50;;;;;;;;;;5918519;24;20036;-87
2023/03/01 09:30:56;;;;;;;18.42;8.07;;;;;;;;;;5919143;24;20071;-87
2023/03/01 09:35:23;;;;;;;16.13;8.00;;;;;;;;;;5888131;24;20110;-85
2023/03/01 09:39:57;;;;;;;20.08;8.48;;;;;;;;;;5865303;24;20026;-86
2023/03/01 09:44:20;;;;;;;14.00;7.47;;;;;;;;;;6006292;23;20023;-86
2023/03/01 09:48:23;;;;;;;18.58;8.32;;;;;;;;;;6003248;23;20028;-86
2023/03/01 09:51:43;;;;;;;17.90;8.50;;;;;;;;;;5967311;23;20612;-86
2023/03/01 09:56:35;;;;;;;15.90;7.80;;;;;;;;;;6020221;23;20019;-86
2023/03/01 10:00:56;;;;;;;17.55;7.47;;;;;;;;;;6031602;23;20129;-86
2023/03/01 10:10:04;;;;;;;15.27;7.20;;;;;;;;;;6029816;23;20019;-87
2023/03/01 10:14:22;;;;;;;20.83;7.20;;;;;;;;;;6059700;23;20027;-87
2023/03/01 10:18:52;;;;;;;14.68;7.28;;;;;;;;;;5974286;24;20564;-86
2023/03/01 10:32:06;;;;;;;16.40;6.63;;;;;;;;;;5975099;24;20032;-86
2023/03/01 10:36:40;;;;;;;15.93;7.25;;;;;;;;;;5818296;24;20046;-86
2023/03/01 10:41:23;;;;;;;16.83;6.82;;;;;;;;;;5844276;24;20522;-88
2023/03/01 10:46:14;;;;;;;14.05;7.07;;;;;;;;;;5920617;24;20712;-87
2023/03/01 10:51:02;;;;;;;16.63;7.10;;;;;;;;;;5930196;24;20188;-86
2023/03/01 10:55:48;;;;;;;14.25;6.88;;;;;;;;;;5919890;24;20033;-87
2023/03/01 13:49:59;;;;;;;5.43;2.78;;;;;;;;;;6365434;22;20413;-88
2023/03/01 13:58:00;;;;;;;8.65;3.08;;;;;;;;;;6295278;22;20031;-87
2023/03/01 14:11:58;;;;;;;6.53;2.85;;;;;;;;;;6080840;23;20018;-87
2023/03/01 14:16:27;;;;;;;8.32;3.63;;;;;;;;;;6002823;23;20091;-87
2023/03/01 14:20:40;;;;;;;7.20;3.28;;;;;;;;;;5974953;24;20024;-87
2023/03/01 14:29:57;;;;;;;6.90;3.20;;;;;;;;;;5975428;24;20016;-86
2023/03/01 16:39:25;;;;;;;8.40;4.00;;;;;;;;;;5180702;22;26439090;-84
2023/03/01 16:42:36;;;;;;;8.52;3.70;;;;;;;;;;6259618;22;20023;-85
2023/03/01 16:45:18;;;;;;;;;;;;;;;;;;6249727;22;20362;-86
2023/03/01 16:49:23;;;;;;;6.15;3.25;;;;;;;;;;6285985;22;20301;-84
2023/03/01 16:52:45;;;;;;;7.57;3.55;;;;;;;;;;6315238;22;20098;-86
2023/03/01 16:55:34;;;;;;;7.85;4.22;;;;;;;;;;6256398;22;20106;-86
2023/03/01 16:58:17;;;;;;;10.63;4.05;;;;;;;;;;6276945;22;20023;-86
2023/03/01 17:02:19;;;;;;;10.35;5.13;;;;;;;;;;6239042;23;20815;-85
2023/03/01 17:05:30;;;;;;;8.48;4.38;;;;;;;;;;6295446;22;20019;-86
2023/03/01 17:09:41;;;;;;;8.93;4.57;;;;;;;;;;6259858;22;20027;-84
2023/03/01 17:14:26;;;;;;;7.93;4.57;;;;;;;;;;6236962;23;20440;-84
2023/03/01 17:18:29;;;;;;;12.73;5.20;;;;;;;;;;6178138;23;20208;-84
2023/03/01 17:23:00;;;;;;;9.75;4.65;;;;;;;;;;6178600;23;20084;-84
2023/03/01 17:27:27;;;;;;;9.70;4.57;;;;;;;;;;6208833;23;20123;-84
2023/03/01 17:31:36;;;;;;;10.48;4.65;;;;;;;;;;6207446;23;20028;-84
2023/03/01 17:36:05;;;;;;;8.23;4.40;;;;;;;;;;6173884;23;20116;-84
2023/03/01 17:41:16;;;;;;;9.00;4.38;;;;;;;;;;6049383;23;20023;-84
2023/03/01 17:45:56;;;;;;;8.43;4.22;;;;;;;;;;5920417;24;20100;-84
2023/03/01 17:54:20;;;;;;;;;;;;;;;;;;5932556;24;20095;-84
2023/03/01 17:58:54;;;;;;;10.35;5.53;;;;;;;;;;5921875;24;19923;-85
2023/03/01 18:02:26;;;;;;;17.55;7.85;;;;;;;;;;5890070;24;20028;-86
2023/03/01 18:05:14;;;;;;;14.55;7.00;;;;;;;;;;5944845;23;20020;-86
2023/03/01 18:09:14;;;;;;;14.13;7.78;;;;;;;;;;6004066;23;20032;-85
2023/03/01 18:13:50;;;;;;;14.07;6.95;;;;;;;;;;5972429;24;20117;-86
2023/03/01 18:18:34;;;;;;;23.98;11.15;;;;;;;;;;5998653;23;20102;-86
2023/03/01 18:23:15;;;;;;;15.88;8.52;;;;;;;;;;6031109;23;20042;-86
2023/03/01 18:37:44;;;;;;;18.35;9.13;;;;;;;;;;5867260;24;20021;-85
2023/03/01 18:42:06;;;;;;;23.50;10.40;;;;;;;;;;5864403;24;20025;-86
2023/03/01 18:51:37;;;;;;;22.88;8.93;;;;;;;;;;5924866;24;20031;-85
2023/03/01 18:56:37;;;;;;;20.50;9.30;;;;;;;;;;5970937;23;20027;-85
2023/03/01 19:06:31;;;;;;;20.50;9.35;;;;;;;;;;5908820;24;20493;-85
2023/03/01 19:11:18;;;;;;;26.48;11.98;;;;;;;;;;5974258;24;20032;-84
2023/03/01 19:29:18;;;;;;;25.55;9.85;;;;;;;;;;5918474;24;20412;-86
2023/03/01 19:37:56;;;;;;;23.15;9.63;;;;;;;;;;5829189;24;20031;-86
2023/03/01 19:42:26;;;;;;;25.25;9.75;;;;;;;;;;5839093;24;20038;-86
2023/03/01 19:51:35;;;;;;;29.08;10.52;;;;;;;;;;5753222;24;20055;-85
2023/03/01 20:00:44;;;;;;;23.70;10.93;;;;;;;;;;5732211;25;20027;-84
2023/03/01 20:14:12;;;;;;;27.67;10.88;;;;;;;;;;5970218;24;20039;-84
2023/03/01 20:18:26;;;;;;;22.23;9.80;;;;;;;;;;5998926;23;20028;-84
2023/03/01 20:31:45;;;;;;;28.58;11.80;;;;;;;;;;6076975;23;20068;-86
2023/03/01 20:35:40;;;;;;;26.60;10.68;;;;;;;;;;6092317;23;20062;-86
2023/03/01 20:40:11;;;;;;;21.63;9.85;;;;;;;;;;6116273;23;20033;-84
2023/03/01 20:48:56;;;;;;;24.92;10.35;;;;;;;;;;6057794;23;20544;-86
2023/03/01 20:53:02;;;;;;;22.63;10.00;;;;;;;;;;6060060;23;20565;-86
2023/03/01 20:57:29;;;;;;;27.27;11.10;;;;;;;;;;6138534;23;20467;-85
2023/03/01 21:01:52;;;;;;;26.85;10.63;;;;;;;;;;6147601;23;20025;-86
2023/03/01 21:11:08;;;;;;;23.35;8.63;;;;;;;;;;6069164;23;20066;-85
2023/03/01 21:14:41;;;;;;;22.45;10.05;;;;;;;;;;5958887;24;20032;-85
2023/03/01 21:18:31;;;;;;;22.13;9.15;;;;;;;;;;5972174;23;20448;-87
2023/03/01 21:22:54;;;;;;;21.65;9.63;;;;;;;;;;5974733;24;20465;-86
2023/03/01 21:27:29;;;;;;;22.83;8.88;;;;;;;;;;5917099;24;20834;-84
2023/03/01 21:32:01;;;;;;;20.30;8.50;;;;;;;;;;5846521;24;20087;-84
2023/03/01 22:37:37;;;;;;;13.18;6.53;;;;;;;;;;6237464;22;20043;-84
2023/03/01 22:41:22;;;;;;;17.45;7.32;;;;;;;;;;6237672;23;20023;-84
2023/03/01 22:46:01;;;;;;;12.40;5.25;;;;;;;;;;6109434;23;20033;-84
2023/03/01 22:50:59;;;;;;;15.15;5.97;;;;;;;;;;5999833;23;20028;-84
2023/03/01 22:54:22;;;;;;;21.70;6.03;;;;;;;;;;5924194;24;20029;-84
2023/03/01 22:58:19;;;;;;;10.60;5.18;;;;;;;;;;5872284;24;20480;-84
2023/03/01 23:02:27;;;;;;;14.00;6.25;;;;;;;;;;5843376;24;20031;-84
2023/03/01 23:06:48;;;;;;;13.35;5.88;;;;;;;;;;5879054;24;20061;-87
2023/03/01 23:10:08;;;;;;;10.88;5.15;;;;;;;;;;5947939;24;20179;-87
2023/03/01 23:14:15;;;;;;;11.65;5.35;;;;;;;;;;5947396;24;20028;-84
2023/03/01 23:27:31;;;;;;;13.57;5.70;;;;;;;;;;6063027;23;20026;-85
2023/03/01 23:31:56;;;;;;;10.65;4.70;;;;;;;;;;6122579;23;20037;-85
2023/03/01 23:35:32;;;;;;;9.05;4.32;;;;;;;;;;6146701;23;20025;-85
2023/03/01 23:39:28;;;;;;;12.00;5.20;;;;;;;;;;6124635;23;20029;-84
2023/03/01 23:43:51;;;;;;;11.98;4.93;;;;;;;;;;6080277;23;20028;-85
2023/03/01 23:47:23;;;;;;;;;;;;;;;;;;6088273;23;20235;-84
2023/03/01 23:51:51;;;;;;;10.68;4.85;;;;;;;;;;6058641;23;19989;-84
2023/03/01 23:55:36;;;;;;;14.55;5.07;;;;;;;;;;6030315;23;20044;-85
2023/03/01 23:59:43;;;;;;;9.48;4.47;;;;;;;;;;6049594;23;20551;-85
